Time,TemperatureF,DewpointF,PressureIn,WindDirection,WindDirectionDegrees,WindSpeedMPH,WindSpeedGustMPH,Humidity,HourlyPrecipIn,Conditions,Clouds,dailyrainin,SoftwareType,DateUTC
2013-07-08 06:27:00,70.3,69.7,29.80,NNE,22,0.0,-999.0,98,-99.99,,,0.00,Acu-Link.com,2013-07-08 16:27:00,
2013-07-08 06:43:00,70.7,70.1,29.82,NNE,22,0.0,-999.0,98,-99.99,,,0.00,Acu-Link.com,2013-07-08 16:43:00,
2013-07-08 06:58:00,71.1,70.5,29.80,NNE,22,0.0,-999.0,98,-99.99,,,0.00,Acu-Link.com,2013-07-08 16:58:00,
2013-07-08 07:33:00,73.2,72.6,29.83,NNE,22,0.0,-999.0,98,-99.99,,,0.00,Acu-Link.com,2013-07-08 17:33:00,
2013-07-08 07:50:00,73.9,73.3,29.81,NNE,22,0.0,-999.0,98,-99.99,,,0.00,Acu-Link.com,2013-07-08 17:50:00,
2013-07-08 08:21:00,75.7,71.2,29.84,NNE,22,0.0,-999.0,86,-99.99,,,0.00,Acu-Link.com,2013-07-08 18:21:00,
2013-07-08 08:36:00,78.1,71.0,29.81,NE,45,0.0,-999.0,79,-99.99,,,0.00,Acu-Link.com,2013-07-08 18:36:00,
2013-07-08 08:51:00,80.2,71.1,29.83,North,0,2.2,-999.0,74,-99.99,,,0.00,Acu-Link.com,2013-07-08 18:51:00,
2013-07-08 09:07:00,81.1,71.2,29.84,West,270,1.1,-999.0,72,-99.99,,,0.00,Acu-Link.com,2013-07-08 19:07:00,
2013-07-08 09:22:00,82.2,71.4,29.82,NE,45,0.0,-999.0,70,-99.99,,,0.00,Acu-Link.com,2013-07-08 19:22:00,
2013-07-08 09:54:00,84.2,71.1,29.84,NNW,337,1.1,-999.0,65,-99.99,,,0.00,Acu-Link.com,2013-07-08 19:54:00,
2013-07-08 10:25:00,86.9,70.8,29.83,North,0,1.1,-999.0,59,-99.99,,,0.00,Acu-Link.com,2013-07-08 20:25:00,
2013-07-08 10:40:00,85.6,71.5,29.83,North,0,0.0,-999.0,63,-99.99,,,0.00,Acu-Link.com,2013-07-08 20:40:00,
2013-07-08 10:56:00,86.4,71.8,29.83,WNW,292,1.7,-999.0,62,-99.99,,,0.00,Acu-Link.com,2013-07-08 20:56:00,
2013-07-08 11:11:00,87.3,72.2,29.81,NW,315,1.1,-999.0,61,-99.99,,,0.00,Acu-Link.com,2013-07-08 21:11:00,
2013-07-08 11:26:00,89.6,72.8,29.82,WNW,292,1.7,-999.0,58,-99.99,,,0.00,Acu-Link.com,2013-07-08 21:26:00,
2013-07-08 11:57:00,89.8,72.5,29.80,WNW,292,2.2,-999.0,57,-99.99,,,0.00,Acu-Link.com,2013-07-08 21:57:00,
2013-07-08 12:12:00,91.2,72.7,29.80,North,0,1.7,-999.0,55,-99.99,,,0.00,Acu-Link.com,2013-07-08 22:12:00,
2013-07-08 12:57:00,86.5,74.2,29.79,NNW,337,1.7,-999.0,67,-99.99,,,0.00,Acu-Link.com,2013-07-08 22:57:00,
2013-07-08 13:13:00,85.6,73.4,29.80,ENE,67,3.2,-999.0,67,-99.99,,,0.00,Acu-Link.com,2013-07-08 23:13:00,
2013-07-08 14:09:00,86.5,70.9,29.83,North,0,1.7,-999.0,60,-99.99,,,0.00,Acu-Link.com,2013-07-09 00:09:00,
2013-07-08 14:54:00,86.0,70.5,29.78,NNW,337,1.1,-999.0,60,-99.99,,,0.00,Acu-Link.com,2013-07-09 00:54:00,
2013-07-08 15:10:00,86.2,71.1,29.78,NNE,22,3.7,-999.0,61,-99.99,,,0.00,Acu-Link.com,2013-07-09 01:10:00,
2013-07-08 15:40:00,85.1,70.6,29.76,WSW,247,2.2,-999.0,62,-99.99,,,0.00,Acu-Link.com,2013-07-09 01:40:00,
2013-07-08 16:11:00,88.9,72.2,29.76,WSW,247,2.2,-999.0,58,-99.99,,,0.00,Acu-Link.com,2013-07-09 02:11:00,
2013-07-08 16:57:00,90.7,71.2,29.79,NNW,337,1.7,-999.0,53,-99.99,,,0.00,Acu-Link.com,2013-07-09 02:57:00,
2013-07-08 17:12:00,88.9,74.2,29.78,North,0,3.2,-999.0,62,-99.99,,,0.00,Acu-Link.com,2013-07-09 03:12:00,
2013-07-08 17:42:00,83.3,72.0,29.78,NNE,22,0.0,-999.0,69,-99.99,,,0.00,Acu-Link.com,2013-07-09 03:42:00,
2013-07-08 18:13:00,80.4,71.7,29.79,North,0,0.0,-999.0,75,-99.99,,,0.00,Acu-Link.com,2013-07-09 04:13:00,
2013-07-08 18:28:00,79.7,70.7,29.80,North,0,1.7,-999.0,74,-99.99,,,0.00,Acu-Link.com,2013-07-09 04:28:00,
2013-07-08 18:43:00,78.6,70.4,29.80,NE,45,1.7,-999.0,76,-99.99,,,0.00,Acu-Link.com,2013-07-09 04:43:00,
2013-07-08 18:58:00,78.4,70.2,29.83,NE,45,0.0,-999.0,76,-99.99,,,0.00,Acu-Link.com,2013-07-09 04:58:00,
2013-07-08 19:14:00,78.3,69.7,29.81,SSE,157,0.0,-999.0,75,-99.99,,,0.00,Acu-Link.com,2013-07-09 05:14:00,
2013-07-08 19:29:00,77.7,69.5,29.82,SW,225,1.1,-999.0,76,-99.99,,,0.00,Acu-Link.com,2013-07-09 05:29:00,
2013-07-08 19:44:00,77.5,69.3,29.84,NNE,22,0.0,-999.0,76,-99.99,,,0.00,Acu-Link.com,2013-07-09 05:44:00,
2013-07-08 20:00:00,77.5,69.3,29.83,North,0,0.0,-999.0,76,-99.99,,,0.00,Acu-Link.com,2013-07-09 06:00:00,
2013-07-08 20:15:00,77.4,69.6,29.84,WNW,292,0.0,-999.0,77,-99.99,,,0.00,Acu-Link.com,2013-07-09 06:15:00,
2013-07-08 20:30:00,77.4,70.0,29.83,SSW,202,1.1,-999.0,78,-99.99,,,0.00,Acu-Link.com,2013-07-09 06:30:00,
2013-07-08 20:45:00,76.6,70.0,29.84,South,180,2.2,-999.0,80,-99.99,,,0.00,Acu-Link.com,2013-07-09 06:45:00,
2013-07-08 21:01:00,76.5,69.9,29.85,NNW,337,0.0,-999.0,80,-99.99,,,0.00,Acu-Link.com,2013-07-09 07:01:00,
2013-07-08 21:16:00,76.3,70.0,29.87,ESE,112,0.0,-999.0,81,-99.99,,,0.00,Acu-Link.com,2013-07-09 07:16:00,
2013-07-08 21:31:00,76.1,70.2,29.88,SSE,157,0.0,-999.0,82,-99.99,,,0.00,Acu-Link.com,2013-07-09 07:31:00,
2013-07-08 21:47:00,75.7,70.2,29.87,NNE,22,0.0,-999.0,83,-99.99,,,0.00,Acu-Link.com,2013-07-09 07:47:00,
2013-07-08 22:02:00,75.6,70.1,29.87,North,0,0.0,-999.0,83,-99.99,,,0.00,Acu-Link.com,2013-07-09 08:02:00,
2013-07-08 22:18:00,75.2,69.7,29.90,West,270,0.0,-999.0,83,-99.99,,,0.00,Acu-Link.com,2013-07-09 08:18:00,
2013-07-08 22:33:00,75.2,69.7,29.87,NNE,22,0.0,-999.0,83,-99.99,,,0.00,Acu-Link.com,2013-07-09 08:33:00,
2013-07-08 22:48:00,75.0,69.8,29.88,NNE,22,0.0,-999.0,84,-99.99,,,0.00,Acu-Link.com,2013-07-09 08:48:00,